アンカレッジ/テッド・スティーブンス の空港の天気 - METARとTAF

テッド・スティーブンス・アンカレッジ国際空港 ( PANC / ANC ) - アメリカ アラスカ州アンカレッジ
飛行場実況気象(Metar)
観測時間07/15 21:53 AKDT (07/16 05:53 UTC)
風向・風速静穏 0m/s
視程10km以上
天気現象
少しの雲 雲底高度 1460m
少しの雲 雲底高度 2130m
全天の4割程度の雲 雲底高度 7620m
気温14.4℃
湿度70%
気圧1009.2hPa
METARPANC 160553Z 00000KT 10SM FEW048 FEW070 SCT250 14/09 A2980 RMK AO2 SLP092 CB DSNT N DSIPTD T01440089 10189 20144 53007
過去の天気等 Google飛行場航空写真 Wunderground天気予報

過去48時間のMETAR

飛行場予報(TAF)
発表時間: 7/15 21:23 AKDT (7/16 05:23 UTC)
予報対象時間: 15日22時 AKDT ~ 17日4時 AKDT
風向・風速南 4m/s
視程10km以上
全天の4割程度の雲 雲底高度 1520m
全天の8割程度の雲 雲底高度 2130m
16日16時 AKDT から
風向・風速南 6m/s 瞬間風速 10m/s
視程10km以上
天気現象周辺でしゅう雨
全天の4割程度の雲 雲底高度 1220m
全天を覆う雲 雲底高度 1830m
PANC 160523Z 1606/1712 17007KT P6SM SCT050 BKN070
FM170000 17012G19KT P6SM VCSH SCT040 OVC060